Chesterton, IN (46304)

8:39 PM CST on February 13, 2016 (GMT -0600)
Roxy Weather in Tamarack | | Change Station
CLOSE
Current Station
Personal Weather Station
Location: Chesterton, IN
Elevation: 650 ft
Nearby Weather Stations

Elev 650 ft 41.59 °N, 87.05 °W | Updated 1 minute ago

Mostly Cloudy
Mostly Cloudy
6.8 °F
Feels Like 7 °F
N
0.0
Wind Variable Wind from North
Gusts 0.0 mph

Today
High -- | Low -- °F
--% Chance of Precip.
Yesterday
High -- | Low -- °F
Precip. -- in
Pressure 30.55 in
Visibility -9999.0 miles
Clouds Clear
Windchill 7 °F
Dew Point -10 °F
Humidity 46%
Rainfall 0.00 in
Snow Depth Not available.
6:46 AM 5:18 PM
Waxing Crescent, 36% visible
METAR KVPZ 140156Z AUTO 13003KT CLR M13/M18 A3049 RMK AO2 SLP343 T11331183 TSNO $
Pressure 30.55 in
Visibility -9999.0 miles
Clouds Clear
Windchill 7 °F
Dew Point -10 °F
Humidity 46%
Rainfall 0.00 in
Snow Depth Not available.
6:46 AM 5:18 PM
Waxing Crescent, 36% visible
METAR KVPZ 140156Z AUTO 13003KT CLR M13/M18 A3049 RMK AO2 SLP343 T11331183 TSNO $

10-Day Weather Forecast

Almanac

Astronomy

Feb. 13, 2016 Rise Set
Actual Time
Civil Twilight
Nautical Twilight
Astronomical Twilight
Moon
Length of Visible Light
Length of Day
Tomorrow will be .
, % of the Moon is Illuminated

Today's Extremes

State Highs State Lows

Community

WunderPhotos

Upload Photos

1,892,730 photos uploaded!

WunderBlog® & News

Nearby

Air Quality

  Air Quality AQ Index Pollutant
Not available.

Snow Depth

Station Depth Elevation

Earthquake Activity

City Distance Mag. Time & Date
Minimum magnitude displayed is 2.5.

Coastal Water Temperatures

Place Temperature

Stations

Nearby Weather Stations

Station Location Temp. Windchill Dew Point Humidity Wind Precip. Elev Updated Type
                   

Watches & Warnings

There are currently no watches in effect.